Starrhs Ferry, Idaho
Current Conditions -  °F | °C
As of 2:53 AM on Tuesday 21 Oct 2014 (Local Time) from KBYI Reporting Station
Broken Clouds Broken Clouds  
Wind Chill: 62°   Ceiling: 11000
Heat Index: 62°   Visibility: 10mi
Dew Point: 36°   Wind: 8mph
Humidity: 38%   Direction: 150°SSE
Pressure: 29.75"   Gusts: NA
Location:  42.5011°N, 113.814°W
Report Text: KBYI 210853Z AUTO 15007KT 10SM BKN110 17/02 A2975 RMK AO2 SLP028 T01670022 58006
Loading
Personal Weather Stations






























Interactive Weather Map
Tropical Storm Tracking
New forecast layout! Learn more

10-Day Weather Forecast

Advertisements
Track Severe Weather on mobile